To NAV CANADA Home Page Login to a new session Search on AWWS site Disclaimer Vers la page française équivalente Tips FAQ What's new on the site To the Forecasts and Observations / NOTAM section To "File a Flight Plan" website Publications and other links Update of the User's profile FIC Telephone Numbers My Weather Data Folder Route Weather Data Regional Weather Data Local Weather Data To the Forecasts and Observations / NOTAM section
Request Generated 04/24/2019 at 16:01:58 UTC . Weather information available at that time is displayed.

METAR/TAF

RANKIN INLET/NU    

METAR CYRT 241600Z 11017G23KT 3/4SM -SN BLSN OVC020 M04/M06 A2945 RMK SN3SC5 SLP978=
SPECI CYRT 241556Z 11018KT 1/2SM -SN BLSN OVC013 M04/M06 A2945 RMK SN2SC6 SLP978=
SPECI CYRT 241541Z 09017G24KT 3/8SM -SN BLSN OVC013 M05/M06 A2945 RMK SN4SC4 SLP976=
METAR CYRT 241500Z 11016G23KT 1/2SM -SN BLSN OVC012 M05/M06 A2947 RMK SN3SC5 SLP984=
SPECI CYRT 241437Z 10014G22KT 1/2SM -SN BLSN OVC013 M05/M06 A2947 RMK SN3SC5 SLP984=
METAR CYRT 241400Z 11016G24KT 1SM -SN BLSN SCT012 OVC020 M05/M06 A2948 RMK SC3SC5 SLP989=

TAF AMD CYRT 241456Z 2414/2424 11020KT 1/2SM -SN BLSN OVC008 TEMPO
2414/2422 3SM -SN OVC012
BECMG 2420/2422 02025G35KT
FM242200 02025G35KT 1/2SM -SN BLSN VV004
RMK NXT FCST BY 241800Z=
Your time UTC time
Weather data provided by Environment Canada and NAV CANADA